Hood River, Oregon
Current Conditions -  °F | °C
As of 4:39 AM on Monday 20 Oct 2014 (Local Time) from K4S2 Reporting Station
Overcast Overcast  
Wind Chill: 54°   Ceiling: 6000
Heat Index: 54°   Visibility: 10mi
Dew Point: 52°   Wind: 0mph
Humidity: 94%   Direction: NA
Pressure: 29.73"   Gusts: NA
Location:  45.71°N, 121.52°W
Report Text: K4S2 201139Z AUTO 00000KT 10SM BKN060 OVC090 12/11 A2973 RMK AO2 SLP072 T01200110
Loading
Personal Weather Stations






























Interactive Weather Map New forecast layout! Learn more

10-Day Weather Forecast

Advertisements
Track Severe Weather on mobile